Time,TemperatureF,DewpointF,PressureIn,WindDirection,WindDirectionDegrees,WindSpeedMPH,WindSpeedGustMPH,Humidity,HourlyPrecipIn,Conditions,Clouds,dailyrainin,SoftwareType,DateUTC
2013-02-09 00:00:00,38.6,32.0,29.98,NNW,330,2.0,5.0,77,0.00,,,-99.99,Weather View 32 v60,2013-02-09 08:00:00,
2013-02-09 00:05:00,38.4,32.1,29.98,WNW,301,0.0,5.0,78,0.00,,,-99.99,Weather View 32 v60,2013-02-09 08:05:00,
2013-02-09 00:10:00,38.3,32.0,29.98,East,82,2.0,5.0,78,0.00,,,-99.99,Weather View 32 v60,2013-02-09 08:10:00,
2013-02-09 00:15:00,38.2,31.9,29.98,East,81,3.0,5.0,78,0.00,,,-99.99,Weather View 32 v60,2013-02-09 08:15:00,
2013-02-09 00:20:00,38.3,32.4,29.98,North,10,1.0,5.0,79,0.00,,,-99.99,Weather View 32 v60,2013-02-09 08:20:00,
2013-02-09 00:25:00,38.1,31.8,29.98,North,4,1.0,5.0,78,0.00,,,-99.99,Weather View 32 v60,2013-02-09 08:25:00,
2013-02-09 00:30:00,38.0,31.7,29.99,NE,46,2.0,5.0,78,0.00,,,-99.99,Weather View 32 v60,2013-02-09 08:30:00,
2013-02-09 00:35:00,37.8,31.9,29.98,ESE,103,2.0,5.0,79,0.00,,,-99.99,Weather View 32 v60,2013-02-09 08:35:00,
2013-02-09 00:40:00,37.6,31.7,29.99,East,98,1.0,5.0,79,0.00,,,-99.99,Weather View 32 v60,2013-02-09 08:40:00,
2013-02-09 00:45:00,37.3,31.4,29.99,ENE,76,1.0,5.0,79,0.00,,,-99.99,Weather View 32 v60,2013-02-09 08:45:00,
2013-02-09 00:50:00,37.2,31.6,29.99,ENE,63,3.0,4.0,80,0.00,,,-99.99,Weather View 32 v60,2013-02-09 08:50:00,
2013-02-09 00:55:00,37.4,31.8,29.99,NE,54,1.0,4.0,80,0.00,,,-99.99,Weather View 32 v60,2013-02-09 08:55:00,
2013-02-09 01:00:00,37.6,32.0,29.99,ENE,67,2.0,4.0,80,0.00,,,-99.99,Weather View 32 v60,2013-02-09 09:00:00,
2013-02-09 01:05:00,37.7,32.1,29.99,East,86,2.0,4.0,80,0.00,,,-99.99,Weather View 32 v60,2013-02-09 09:05:00,
2013-02-09 01:10:00,37.6,31.7,29.99,East,83,2.0,4.0,79,0.00,,,-99.99,Weather View 32 v60,2013-02-09 09:10:00,
2013-02-09 01:30:00,37.7,32.1,30.00,NE,42,1.0,5.0,80,0.00,,,-99.99,Weather View 32 v60,2013-02-09 09:30:00,
2013-02-09 01:35:00,37.6,31.7,30.00,North,4,1.0,5.0,79,0.00,,,-99.99,Weather View 32 v60,2013-02-09 09:35:00,
2013-02-09 01:45:00,37.0,31.1,30.00,East,81,4.0,5.0,79,0.00,,,-99.99,Weather View 32 v60,2013-02-09 09:45:00,
2013-02-09 01:50:00,36.8,31.2,30.00,East,95,5.0,5.0,80,0.00,,,-99.99,Weather View 32 v60,2013-02-09 09:50:00,
2013-02-09 01:55:00,36.8,31.2,30.00,East,97,3.0,5.0,80,0.00,,,-99.99,Weather View 32 v60,2013-02-09 09:55:00,
2013-02-09 02:15:00,36.3,31.0,29.99,East,90,3.0,5.0,81,0.00,,,-99.99,Weather View 32 v60,2013-02-09 10:15:00,
2013-02-09 02:18:00,37.6,32.0,30.00,ENE,76,3.0,4.0,80,0.00,,,-99.99,Weather View 32 v60,2013-02-09 10:18:00,
2013-02-09 02:23:00,37.5,31.9,30.00,East,86,3.0,5.0,80,0.00,,,-99.99,Weather View 32 v60,2013-02-09 10:23:00,
2013-02-09 02:25:00,35.9,30.6,30.00,ENE,58,2.0,5.0,81,0.00,,,-99.99,Weather View 32 v60,2013-02-09 10:25:00,
2013-02-09 02:28:00,37.6,32.0,30.00,NE,52,3.0,5.0,80,0.00,,,-99.99,Weather View 32 v60,2013-02-09 10:28:00,
2013-02-09 02:30:00,35.9,30.9,29.99,East,86,4.0,5.0,82,0.00,,,-99.99,Weather View 32 v60,2013-02-09 10:30:00,
2013-02-09 02:35:00,35.7,30.7,29.99,East,82,1.0,5.0,82,0.00,,,-99.99,Weather View 32 v60,2013-02-09 10:35:00,
2013-02-09 02:40:00,35.8,30.8,29.99,East,90,2.0,5.0,82,0.00,,,-99.99,Weather View 32 v60,2013-02-09 10:40:00,
2013-02-09 02:43:00,37.4,31.5,30.00,East,89,3.0,5.0,79,0.00,,,-99.99,Weather View 32 v60,2013-02-09 10:43:00,
2013-02-09 02:45:00,35.6,30.6,29.99,ENE,66,1.0,5.0,82,0.00,,,-99.99,Weather View 32 v60,2013-02-09 10:45:00,
2013-02-09 03:00:00,34.9,30.3,29.99,East,83,2.0,5.0,83,0.00,,,-99.99,Weather View 32 v60,2013-02-09 11:00:00,
2013-02-09 03:03:00,36.6,31.0,30.00,East,94,4.0,5.0,80,0.00,,,-99.99,Weather View 32 v60,2013-02-09 11:03:00,
2013-02-09 03:05:00,34.6,30.0,29.99,North,349,1.0,5.0,83,0.00,,,-99.99,Weather View 32 v60,2013-02-09 11:05:00,
2013-02-09 03:08:00,36.4,30.8,30.00,East,81,2.0,5.0,80,0.00,,,-99.99,Weather View 32 v60,2013-02-09 11:08:00,
2013-02-09 03:10:00,34.4,30.1,29.99,NNE,24,2.0,5.0,84,0.00,,,-99.99,Weather View 32 v60,2013-02-09 11:10:00,
2013-02-09 03:13:00,36.4,31.1,30.00,East,79,2.0,5.0,81,0.00,,,-99.99,Weather View 32 v60,2013-02-09 11:13:00,
2013-02-09 03:15:00,34.5,30.2,29.99,East,86,2.0,5.0,84,0.00,,,-99.99,Weather View 32 v60,2013-02-09 11:15:00,
2013-02-09 03:20:00,34.6,30.3,29.99,East,101,1.0,5.0,84,0.00,,,-99.99,Weather View 32 v60,2013-02-09 11:20:00,
2013-02-09 03:23:00,36.0,30.7,30.00,ENE,71,3.0,5.0,81,0.00,,,-99.99,Weather View 32 v60,2013-02-09 11:23:00,
2013-02-09 03:25:00,34.6,30.3,29.99,East,79,1.0,5.0,84,0.00,,,-99.99,Weather View 32 v60,2013-02-09 11:25:00,
2013-02-09 03:39:00,35.7,30.7,29.99,East,82,1.0,5.0,82,0.00,,,-99.99,Weather View 32 v60,2013-02-09 11:39:00,
2013-02-09 03:53:00,35.3,30.4,29.99,NE,53,2.0,5.0,82,0.00,,,-99.99,Weather View 32 v60,2013-02-09 11:53:00,
2013-02-09 03:58:00,35.0,30.1,29.99,NE,43,2.0,5.0,82,0.00,,,-99.99,Weather View 32 v60,2013-02-09 11:58:00,
2013-02-09 04:00:00,35.0,30.7,30.00,North,10,2.0,4.0,84,0.00,,,-99.99,Weather View 32 v60,2013-02-09 12:00:00,
2013-02-09 04:33:00,34.8,30.5,29.99,NE,53,1.0,5.0,84,0.00,,,-99.99,Weather View 32 v60,2013-02-09 12:33:00,
2013-02-09 04:38:00,34.9,30.6,29.99,NNE,21,2.0,4.0,84,0.00,,,-99.99,Weather View 32 v60,2013-02-09 12:38:00,
2013-02-09 04:43:00,35.1,30.8,29.99,NNE,20,1.0,4.0,84,0.00,,,-99.99,Weather View 32 v60,2013-02-09 12:43:00,
2013-02-09 04:53:00,35.0,30.7,29.99,NE,54,2.0,4.0,84,0.00,,,-99.99,Weather View 32 v60,2013-02-09 12:53:00,
2013-02-09 04:58:00,35.0,30.7,29.99,NE,49,2.0,4.0,84,0.00,,,-99.99,Weather View 32 v60,2013-02-09 12:58:00,
2013-02-09 05:08:00,35.2,30.8,30.00,NNE,13,2.0,4.0,84,0.00,,,-99.99,Weather View 32 v60,2013-02-09 13:08:00,
2013-02-09 05:13:00,35.3,30.9,30.00,North,8,2.0,4.0,84,0.00,,,-99.99,Weather View 32 v60,2013-02-09 13:13:00,
2013-02-09 05:15:00,35.5,30.5,30.00,ENE,57,3.0,5.0,82,0.00,,,-99.99,Weather View 32 v60,2013-02-09 13:15:00,
2013-02-09 05:18:00,35.3,30.9,30.00,NNE,24,2.0,4.0,84,0.00,,,-99.99,Weather View 32 v60,2013-02-09 13:18:00,
2013-02-09 05:23:00,35.1,30.8,30.00,NNE,23,2.0,4.0,84,0.00,,,-99.99,Weather View 32 v60,2013-02-09 13:23:00,
2013-02-09 05:33:00,35.4,31.0,30.00,NNE,22,3.0,5.0,84,0.00,,,-99.99,Weather View 32 v60,2013-02-09 13:33:00,
2013-02-09 05:38:00,35.3,30.9,30.00,NNE,20,2.0,5.0,84,0.00,,,-99.99,Weather View 32 v60,2013-02-09 13:38:00,
2013-02-09 05:43:00,35.3,30.9,30.00,NNE,14,2.0,5.0,84,0.00,,,-99.99,Weather View 32 v60,2013-02-09 13:43:00,
2013-02-09 05:48:00,35.4,31.0,29.99,NNE,22,2.0,5.0,84,0.00,,,-99.99,Weather View 32 v60,2013-02-09 13:48:00,
2013-02-09 05:53:00,35.5,30.8,29.99,North,358,2.0,5.0,83,0.00,,,-99.99,Weather View 32 v60,2013-02-09 13:53:00,
2013-02-09 06:03:00,35.9,31.2,29.99,NE,34,2.0,5.0,83,0.00,,,-99.99,Weather View 32 v60,2013-02-09 14:03:00,
2013-02-09 06:08:00,36.0,31.3,30.00,ENE,71,2.0,5.0,83,0.00,,,-99.99,Weather View 32 v60,2013-02-09 14:08:00,
2013-02-09 06:13:00,35.9,30.9,30.00,NE,51,3.0,5.0,82,0.00,,,-99.99,Weather View 32 v60,2013-02-09 14:13:00,
2013-02-09 06:15:00,36.3,30.7,30.01,NNE,32,2.0,9.0,80,0.00,,,-99.99,Weather View 32 v60,2013-02-09 14:15:00,
2013-02-09 06:23:00,35.2,30.3,30.00,NNE,28,2.0,5.0,82,0.00,,,-99.99,Weather View 32 v60,2013-02-09 14:23:00,
2013-02-09 06:28:00,35.0,30.4,30.00,NNE,23,4.0,5.0,83,0.00,,,-99.99,Weather View 32 v60,2013-02-09 14:28:00,
2013-02-09 06:33:00,35.2,30.6,30.00,ENE,59,5.0,6.0,83,0.00,,,-99.99,Weather View 32 v60,2013-02-09 14:33:00,
2013-02-09 06:35:00,37.5,31.9,30.01,NE,52,3.0,9.0,80,0.00,,,-99.99,Weather View 32 v60,2013-02-09 14:35:00,
2013-02-09 06:38:00,35.7,31.0,30.00,NNE,32,5.0,9.0,83,0.00,,,-99.99,Weather View 32 v60,2013-02-09 14:38:00,
2013-02-09 06:43:00,36.2,31.5,30.00,NE,36,4.0,9.0,83,0.00,,,-99.99,Weather View 32 v60,2013-02-09 14:43:00,
2013-02-09 06:50:00,39.3,32.4,30.01,NE,42,5.0,10.0,76,0.00,,,-99.99,Weather View 32 v60,2013-02-09 14:50:00,
2013-02-09 06:53:00,36.9,31.6,30.00,North,2,3.0,9.0,81,0.00,,,-99.99,Weather View 32 v60,2013-02-09 14:53:00,
2013-02-09 06:58:00,37.0,31.4,30.00,ENE,57,4.0,9.0,80,0.00,,,-99.99,Weather View 32 v60,2013-02-09 14:58:00,
2013-02-09 07:03:00,36.8,31.2,30.00,North,8,3.0,9.0,80,0.00,,,-99.99,Weather View 32 v60,2013-02-09 15:03:00,
2013-02-09 07:05:00,40.7,32.7,30.02,NNE,27,5.0,10.0,73,0.00,,,-99.99,Weather View 32 v60,2013-02-09 15:05:00,
2013-02-09 07:10:00,40.8,32.5,30.02,North,6,3.0,10.0,72,0.00,,,-99.99,Weather View 32 v60,2013-02-09 15:10:00,
2013-02-09 07:13:00,36.4,30.8,30.01,NE,37,3.0,9.0,80,0.00,,,-99.99,Weather View 32 v60,2013-02-09 15:13:00,
2013-02-09 07:20:00,40.9,32.2,30.02,NNE,33,6.0,10.0,71,0.00,,,-99.99,Weather View 32 v60,2013-02-09 15:20:00,
2013-02-09 07:23:00,36.4,31.1,30.01,NE,42,2.0,9.0,81,0.00,,,-99.99,Weather View 32 v60,2013-02-09 15:23:00,
2013-02-09 07:28:00,36.6,31.3,30.01,NNE,28,3.0,9.0,81,0.00,,,-99.99,Weather View 32 v60,2013-02-09 15:28:00,
2013-02-09 07:35:00,42.4,33.3,30.02,NE,45,4.0,10.0,70,0.00,,,-99.99,Weather View 32 v60,2013-02-09 15:35:00,
2013-02-09 07:38:00,37.5,31.9,30.01,NE,52,3.0,9.0,80,0.00,,,-99.99,Weather View 32 v60,2013-02-09 15:38:00,
2013-02-09 07:43:00,38.1,32.2,30.01,NNE,23,7.0,8.0,79,0.00,,,-99.99,Weather View 32 v60,2013-02-09 15:43:00,
2013-02-09 07:48:00,38.7,32.4,30.01,NE,40,4.0,10.0,78,0.00,,,-99.99,Weather View 32 v60,2013-02-09 15:48:00,
2013-02-09 07:55:00,43.8,33.2,30.03,NNE,29,4.0,10.0,66,0.00,,,-99.99,Weather View 32 v60,2013-02-09 15:55:00,
2013-02-09 07:58:00,39.8,32.5,30.01,NE,40,5.0,10.0,75,0.00,,,-99.99,Weather View 32 v60,2013-02-09 15:58:00,
2013-02-09 08:03:00,40.2,32.6,30.01,ENE,64,3.0,10.0,74,0.00,,,-99.99,Weather View 32 v60,2013-02-09 16:03:00,
2013-02-09 08:15:00,46.0,33.3,30.03,NNE,22,5.0,10.0,61,0.00,,,-99.99,Weather View 32 v60,2013-02-09 16:15:00,
2013-02-09 08:18:00,40.7,32.0,30.02,NNE,31,6.0,10.0,71,0.00,,,-99.99,Weather View 32 v60,2013-02-09 16:18:00,
2013-02-09 08:25:00,46.3,33.2,30.03,NNE,20,6.0,9.0,60,0.00,,,-99.99,Weather View 32 v60,2013-02-09 16:25:00,
2013-02-09 08:28:00,40.9,32.2,30.02,North,8,4.0,10.0,71,0.00,,,-99.99,Weather View 32 v60,2013-02-09 16:28:00,
2013-02-09 08:33:00,41.4,32.3,30.02,NNE,19,6.0,10.0,70,0.00,,,-99.99,Weather View 32 v60,2013-02-09 16:33:00,
2013-02-09 08:35:00,47.8,33.7,30.03,North,6,5.0,9.0,58,0.00,,,-99.99,Weather View 32 v60,2013-02-09 16:35:00,
2013-02-09 08:43:00,43.0,33.1,30.02,ENE,63,2.0,10.0,68,0.00,,,-99.99,Weather View 32 v60,2013-02-09 16:43:00,
2013-02-09 08:48:00,43.6,33.4,30.02,NNE,30,4.0,10.0,67,0.00,,,-99.99,Weather View 32 v60,2013-02-09 16:48:00,
2013-02-09 08:50:00,48.7,33.7,30.03,NNE,15,5.0,9.0,56,0.00,,,-99.99,Weather View 32 v60,2013-02-09 16:50:00,
2013-02-09 08:55:00,49.3,34.2,30.02,NNE,28,7.0,9.0,56,0.00,,,-99.99,Weather View 32 v60,2013-02-09 16:55:00,
2013-02-09 09:00:00,50.0,34.0,30.02,NNW,341,3.0,9.0,54,0.00,,,-99.99,Weather View 32 v60,2013-02-09 17:00:00,
2013-02-09 09:03:00,44.2,33.2,30.03,NE,45,4.0,10.0,65,0.00,,,-99.99,Weather View 32 v60,2013-02-09 17:03:00,
2013-02-09 09:08:00,45.3,33.8,30.03,ENE,66,4.0,10.0,64,0.00,,,-99.99,Weather View 32 v60,2013-02-09 17:08:00,
2013-02-09 09:13:00,45.5,33.2,30.03,NE,36,4.0,10.0,62,0.00,,,-99.99,Weather View 32 v60,2013-02-09 17:13:00,
2013-02-09 09:23:00,46.3,33.6,30.03,NE,40,3.0,9.0,61,0.00,,,-99.99,Weather View 32 v60,2013-02-09 17:23:00,
2013-02-09 09:33:00,47.1,33.9,30.03,NE,42,2.0,9.0,60,0.00,,,-99.99,Weather View 32 v60,2013-02-09 17:33:00,
2013-02-09 09:43:00,48.0,33.5,30.03,North,7,3.0,9.0,57,0.00,,,-99.99,Weather View 32 v60,2013-02-09 17:43:00,
2013-02-09 09:48:00,48.3,33.7,30.03,NNE,30,3.0,9.0,57,0.00,,,-99.99,Weather View 32 v60,2013-02-09 17:48:00,
2013-02-09 10:08:00,50.9,34.3,30.02,NNE,22,2.0,9.0,53,0.00,,,-99.99,Weather View 32 v60,2013-02-09 18:08:00,
2013-02-09 10:13:00,52.1,34.0,30.02,WNW,286,2.0,9.0,50,0.00,,,-99.99,Weather View 32 v60,2013-02-09 18:13:00,
2013-02-09 10:18:00,52.6,33.4,30.03,NW,323,3.0,9.0,48,0.00,,,-99.99,Weather View 32 v60,2013-02-09 18:18:00,
2013-02-09 10:23:00,51.5,32.9,30.02,West,280,3.0,9.0,49,0.00,,,-99.99,Weather View 32 v60,2013-02-09 18:23:00,
2013-02-09 10:30:00,56.4,29.0,30.01,North,360,2.0,10.0,35,0.00,,,-99.99,Weather View 32 v60,2013-02-09 18:30:00,
2013-02-09 10:33:00,52.5,33.3,30.02,NNW,346,3.0,9.0,48,0.00,,,-99.99,Weather View 32 v60,2013-02-09 18:33:00,
2013-02-09 10:38:00,53.3,33.0,30.02,North,3,5.0,9.0,46,0.00,,,-99.99,Weather View 32 v60,2013-02-09 18:38:00,
2013-02-09 10:43:00,53.4,30.2,30.02,NW,311,7.0,9.0,41,0.00,,,-99.99,Weather View 32 v60,2013-02-09 18:43:00,
2013-02-09 10:53:00,53.4,30.2,30.02,NNE,17,3.0,9.0,41,0.00,,,-99.99,Weather View 32 v60,2013-02-09 18:53:00,
2013-02-09 10:58:00,54.7,30.8,30.02,NW,318,4.0,9.0,40,0.00,,,-99.99,Weather View 32 v60,2013-02-09 18:58:00,
2013-02-09 11:03:00,54.4,30.5,30.02,NNW,334,3.0,9.0,40,0.00,,,-99.99,Weather View 32 v60,2013-02-09 19:03:00,
2013-02-09 11:08:00,54.7,29.5,30.02,NNW,343,2.0,9.0,38,0.00,,,-99.99,Weather View 32 v60,2013-02-09 19:08:00,
2013-02-09 11:15:00,59.6,27.2,29.99,West,271,2.0,10.0,29,0.00,,,-99.99,Weather View 32 v60,2013-02-09 19:15:00,
2013-02-09 11:18:00,55.1,25.7,30.01,NW,305,8.0,10.0,32,0.00,,,-99.99,Weather View 32 v60,2013-02-09 19:18:00,
2013-02-09 11:23:00,55.0,27.1,30.01,NW,307,5.0,10.0,34,0.00,,,-99.99,Weather View 32 v60,2013-02-09 19:23:00,
2013-02-09 11:28:00,55.3,28.1,30.01,WNW,298,3.0,10.0,35,0.00,,,-99.99,Weather View 32 v60,2013-02-09 19:28:00,
2013-02-09 11:38:00,57.2,29.0,30.00,West,263,3.0,10.0,34,0.00,,,-99.99,Weather View 32 v60,2013-02-09 19:38:00,
2013-02-09 11:43:00,57.3,29.1,30.00,NNW,348,3.0,10.0,34,0.00,,,-99.99,Weather View 32 v60,2013-02-09 19:43:00,
2013-02-09 11:53:00,58.3,29.3,30.00,North,0,2.0,10.0,33,0.00,,,-99.99,Weather View 32 v60,2013-02-09 19:53:00,
2013-02-09 11:58:00,58.1,28.3,30.00,NW,305,5.0,10.0,32,0.00,,,-99.99,Weather View 32 v60,2013-02-09 19:58:00,
2013-02-09 12:03:00,57.9,27.4,30.00,WNW,286,3.0,10.0,31,0.00,,,-99.99,Weather View 32 v60,2013-02-09 20:03:00,
2013-02-09 12:13:00,59.4,27.1,29.99,WNW,297,6.0,10.0,29,0.00,,,-99.99,Weather View 32 v60,2013-02-09 20:13:00,
2013-02-09 12:23:00,59.4,27.9,29.99,North,352,2.0,9.0,30,0.00,,,-99.99,Weather View 32 v60,2013-02-09 20:23:00,
2013-02-09 12:25:00,62.8,22.2,29.96,West,275,5.0,10.0,21,0.00,,,-99.99,Weather View 32 v60,2013-02-09 20:25:00,
2013-02-09 12:30:00,62.5,23.1,29.96,NW,311,5.0,10.0,22,0.00,,,-99.99,Weather View 32 v60,2013-02-09 20:30:00,
2013-02-09 12:33:00,59.9,25.8,29.98,WSW,252,3.0,9.0,27,0.00,,,-99.99,Weather View 32 v60,2013-02-09 20:33:00,
2013-02-09 12:35:00,61.8,21.4,29.96,West,271,2.0,10.0,21,0.00,,,-99.99,Weather View 32 v60,2013-02-09 20:35:00,
2013-02-09 12:38:00,60.3,24.3,29.98,WNW,291,4.0,9.0,25,0.00,,,-99.99,Weather View 32 v60,2013-02-09 20:38:00,
2013-02-09 12:43:00,60.5,23.5,29.98,West,278,2.0,9.0,24,0.00,,,-99.99,Weather View 32 v60,2013-02-09 20:43:00,
2013-02-09 12:48:00,61.8,23.5,29.98,SW,232,2.0,9.0,23,0.00,,,-99.99,Weather View 32 v60,2013-02-09 20:48:00,
2013-02-09 12:58:00,61.9,23.6,29.97,West,262,3.0,9.0,23,0.00,,,-99.99,Weather View 32 v60,2013-02-09 20:58:00,
2013-02-09 13:00:00,62.5,22.0,29.96,West,267,6.0,10.0,21,0.00,,,-99.99,Weather View 32 v60,2013-02-09 21:00:00,
2013-02-09 13:03:00,61.6,22.3,29.98,WNW,284,3.0,9.0,22,0.00,,,-99.99,Weather View 32 v60,2013-02-09 21:03:00,
2013-02-09 13:08:00,62.0,21.5,29.97,West,263,6.0,9.0,21,0.00,,,-99.99,Weather View 32 v60,2013-02-09 21:08:00,
2013-02-09 13:13:00,62.3,21.8,29.97,WNW,296,4.0,9.0,21,0.00,,,-99.99,Weather View 32 v60,2013-02-09 21:13:00,
2013-02-09 13:18:00,62.2,21.7,29.97,WNW,297,5.0,10.0,21,0.00,,,-99.99,Weather View 32 v60,2013-02-09 21:18:00,
2013-02-09 13:20:00,63.6,24.0,29.95,SSE,163,5.0,9.0,22,0.00,,,-99.99,Weather View 32 v60,2013-02-09 21:20:00,
2013-02-09 13:23:00,61.8,20.2,29.97,SSE,162,5.0,10.0,20,0.00,,,-99.99,Weather View 32 v60,2013-02-09 21:23:00,
2013-02-09 13:35:00,63.9,25.3,29.95,WNW,293,4.0,9.0,23,0.00,,,-99.99,Weather View 32 v60,2013-02-09 21:35:00,
2013-02-09 13:40:00,63.6,25.0,29.95,WNW,297,4.0,10.0,23,0.00,,,-99.99,Weather View 32 v60,2013-02-09 21:40:00,
2013-02-09 13:43:00,62.4,21.9,29.96,WSW,250,2.0,10.0,21,0.00,,,-99.99,Weather View 32 v60,2013-02-09 21:43:00,
2013-02-09 13:48:00,62.8,23.3,29.96,West,261,5.0,10.0,22,0.00,,,-99.99,Weather View 32 v60,2013-02-09 21:48:00,
2013-02-09 13:50:00,63.5,26.0,29.95,WNW,284,4.0,10.0,24,0.00,,,-99.99,Weather View 32 v60,2013-02-09 21:50:00,
2013-02-09 13:53:00,63.1,22.5,29.96,WNW,290,5.0,10.0,21,0.00,,,-99.99,Weather View 32 v60,2013-02-09 21:53:00,
2013-02-09 13:58:00,63.0,22.4,29.96,WSW,252,5.0,10.0,21,0.00,,,-99.99,Weather View 32 v60,2013-02-09 21:58:00,
2013-02-09 14:08:00,63.2,23.6,29.96,WSW,248,2.0,10.0,22,0.00,,,-99.99,Weather View 32 v60,2013-02-09 22:08:00,
2013-02-09 14:13:00,63.5,22.8,29.96,SE,129,3.0,10.0,21,0.00,,,-99.99,Weather View 32 v60,2013-02-09 22:13:00,
2013-02-09 14:18:00,63.6,24.0,29.95,SE,143,2.0,10.0,22,0.00,,,-99.99,Weather View 32 v60,2013-02-09 22:18:00,
2013-02-09 14:20:00,63.1,25.6,29.95,WNW,290,8.0,11.0,24,0.00,,,-99.99,Weather View 32 v60,2013-02-09 22:20:00,
2013-02-09 14:28:00,64.3,24.6,29.95,West,274,3.0,9.0,22,0.00,,,-99.99,Weather View 32 v60,2013-02-09 22:28:00,
2013-02-09 14:33:00,63.5,25.0,29.95,SSE,153,3.0,9.0,23,0.00,,,-99.99,Weather View 32 v60,2013-02-09 22:33:00,
2013-02-09 14:45:00,63.6,25.0,29.95,WNW,297,4.0,10.0,23,0.00,,,-99.99,Weather View 32 v60,2013-02-09 22:45:00,
2013-02-09 14:58:00,63.8,26.2,29.95,WNW,282,2.0,10.0,24,0.00,,,-99.99,Weather View 32 v60,2013-02-09 22:58:00,
2013-02-09 15:03:00,64.0,26.4,29.96,WSW,256,3.0,10.0,24,0.00,,,-99.99,Weather View 32 v60,2013-02-09 23:03:00,
2013-02-09 15:08:00,64.1,26.5,29.95,WSW,256,3.0,10.0,24,0.00,,,-99.99,Weather View 32 v60,2013-02-09 23:08:00,
2013-02-09 15:13:00,64.0,26.4,29.95,West,275,7.0,11.0,24,0.00,,,-99.99,Weather View 32 v60,2013-02-09 23:13:00,
2013-02-09 15:18:00,63.4,25.9,29.95,WSW,238,7.0,11.0,24,0.00,,,-99.99,Weather View 32 v60,2013-02-09 23:18:00,
2013-02-09 15:28:00,62.6,25.2,29.95,West,281,6.0,11.0,24,0.00,,,-99.99,Weather View 32 v60,2013-02-09 23:28:00,
2013-02-09 15:38:00,62.1,24.8,29.95,West,277,8.0,12.0,24,0.00,,,-99.99,Weather View 32 v60,2013-02-09 23:38:00,
2013-02-09 15:43:00,61.9,24.6,29.96,WNW,282,9.0,13.0,24,0.00,,,-99.99,Weather View 32 v60,2013-02-09 23:43:00,
2013-02-09 15:48:00,61.8,24.5,29.95,WNW,289,4.0,13.0,24,0.00,,,-99.99,Weather View 32 v60,2013-02-09 23:48:00,
2013-02-09 15:50:00,58.3,23.5,29.96,SSE,168,7.0,14.0,26,0.00,,,-99.99,Weather View 32 v60,2013-02-09 23:50:00,
2013-02-09 15:58:00,61.6,24.4,29.96,West,269,6.0,14.0,24,0.00,,,-99.99,Weather View 32 v60,2013-02-09 23:58:00,
2013-02-09 16:03:00,61.3,25.1,29.96,WNW,290,2.0,14.0,25,0.00,,,-99.99,Weather View 32 v60,2013-02-10 00:03:00,
2013-02-09 16:10:00,57.4,22.7,29.97,South,170,6.0,12.0,26,0.00,,,-99.99,Weather View 32 v60,2013-02-10 00:10:00,
2013-02-09 16:13:00,61.4,25.2,29.96,West,262,5.0,14.0,25,0.00,,,-99.99,Weather View 32 v60,2013-02-10 00:13:00,
2013-02-09 16:15:00,57.1,22.5,29.97,South,179,3.0,11.0,26,0.00,,,-99.99,Weather View 32 v60,2013-02-10 00:15:00,
2013-02-09 16:18:00,61.3,25.1,29.96,WSW,255,5.0,14.0,25,0.00,,,-99.99,Weather View 32 v60,2013-02-10 00:18:00,
2013-02-09 16:23:00,61.3,25.1,29.96,SW,216,2.0,14.0,25,0.00,,,-99.99,Weather View 32 v60,2013-02-10 00:23:00,
2013-02-09 16:33:00,60.1,24.1,29.96,SSW,208,6.0,14.0,25,0.00,,,-99.99,Weather View 32 v60,2013-02-10 00:33:00,
2013-02-09 16:38:00,59.4,23.5,29.96,SW,216,7.0,14.0,25,0.00,,,-99.99,Weather View 32 v60,2013-02-10 00:38:00,
2013-02-09 16:40:00,54.9,22.3,29.99,South,174,5.0,9.0,28,0.00,,,-99.99,Weather View 32 v60,2013-02-10 00:40:00,
2013-02-09 16:45:00,54.7,23.0,29.98,SSE,162,3.0,9.0,29,0.00,,,-99.99,Weather View 32 v60,2013-02-10 00:45:00,
2013-02-09 16:46:00,58.9,24.0,29.96,ESE,122,3.0,14.0,26,0.00,,,-99.99,Weather View 32 v60,2013-02-10 00:46:00,
2013-02-09 16:58:00,58.0,23.2,29.96,South,175,7.0,12.0,26,0.00,,,-99.99,Weather View 32 v60,2013-02-10 00:58:00,
2013-02-09 17:03:00,58.1,23.3,29.96,SW,220,5.0,12.0,26,0.00,,,-99.99,Weather View 32 v60,2013-02-10 01:03:00,
2013-02-09 17:05:00,53.5,23.6,29.99,SE,137,4.0,9.0,31,0.00,,,-99.99,Weather View 32 v60,2013-02-10 01:05:00,
2013-02-09 17:08:00,57.9,23.2,29.97,SSE,158,5.0,12.0,26,0.00,,,-99.99,Weather View 32 v60,2013-02-10 01:08:00,
2013-02-09 17:10:00,53.0,25.3,29.99,ESE,118,5.0,9.0,34,0.00,,,-99.99,Weather View 32 v60,2013-02-10 01:10:00,
2013-02-09 17:23:00,56.6,22.9,29.97,WNW,296,7.0,11.0,27,0.00,,,-99.99,Weather View 32 v60,2013-02-10 01:23:00,
2013-02-09 17:25:00,51.9,26.4,30.00,SE,124,3.0,7.0,37,0.00,,,-99.99,Weather View 32 v60,2013-02-10 01:25:00,
2013-02-09 17:33:00,55.7,23.0,29.98,SSE,151,3.0,11.0,28,0.00,,,-99.99,Weather View 32 v60,2013-02-10 01:33:00,
2013-02-09 17:35:00,51.0,26.2,30.00,ESE,108,4.0,7.0,38,0.00,,,-99.99,Weather View 32 v60,2013-02-10 01:35:00,
2013-02-09 17:38:00,55.3,22.7,29.99,SSE,166,3.0,11.0,28,0.00,,,-99.99,Weather View 32 v60,2013-02-10 01:38:00,
2013-02-09 17:40:00,50.6,26.5,30.00,East,101,5.0,7.0,39,0.00,,,-99.99,Weather View 32 v60,2013-02-10 01:40:00,
2013-02-09 17:43:00,54.9,22.3,29.99,South,174,5.0,9.0,28,0.00,,,-99.99,Weather View 32 v60,2013-02-10 01:43:00,
2013-02-09 17:50:00,49.6,26.8,30.01,ESE,109,2.0,7.0,41,0.00,,,-99.99,Weather View 32 v60,2013-02-10 01:50:00,
2013-02-09 17:53:00,54.4,22.7,29.99,SE,143,4.0,9.0,29,0.00,,,-99.99,Weather View 32 v60,2013-02-10 01:53:00,
2013-02-09 17:55:00,49.2,27.0,30.01,East,95,2.0,7.0,42,0.00,,,-99.99,Weather View 32 v60,2013-02-10 01:55:00,
2013-02-09 18:00:00,48.9,27.3,30.01,ESE,115,3.0,7.0,43,0.00,,,-99.99,Weather View 32 v60,2013-02-10 02:00:00,
2013-02-09 18:03:00,53.9,22.3,29.99,SSE,150,4.0,9.0,29,0.00,,,-99.99,Weather View 32 v60,2013-02-10 02:03:00,
2013-02-09 18:18:00,52.7,25.8,30.00,SE,136,5.0,9.0,35,0.00,,,-99.99,Weather View 32 v60,2013-02-10 02:18:00,
2013-02-09 18:20:00,47.6,27.3,30.01,East,89,2.0,7.0,45,0.00,,,-99.99,Weather View 32 v60,2013-02-10 02:20:00,
2013-02-09 18:23:00,52.3,26.1,30.00,East,86,3.0,8.0,36,0.00,,,-99.99,Weather View 32 v60,2013-02-10 02:23:00,
2013-02-09 18:33:00,51.3,26.5,30.00,SE,130,3.0,7.0,38,0.00,,,-99.99,Weather View 32 v60,2013-02-10 02:33:00,
2013-02-09 18:40:00,46.2,27.6,30.02,East,79,2.0,5.0,48,0.00,,,-99.99,Weather View 32 v60,2013-02-10 02:40:00,
2013-02-09 18:43:00,50.6,26.5,30.00,East,101,5.0,7.0,39,0.00,,,-99.99,Weather View 32 v60,2013-02-10 02:43:00,
2013-02-09 18:45:00,45.8,27.7,30.02,ENE,67,2.0,5.0,49,0.00,,,-99.99,Weather View 32 v60,2013-02-10 02:45:00,
2013-02-09 18:48:00,50.1,26.7,30.01,East,94,3.0,7.0,40,0.00,,,-99.99,Weather View 32 v60,2013-02-10 02:48:00,
2013-02-09 18:50:00,45.6,28.0,30.02,ENE,76,1.0,5.0,50,0.00,,,-99.99,Weather View 32 v60,2013-02-10 02:50:00,
2013-02-09 19:00:00,44.8,27.7,30.02,ESE,109,0.0,5.0,51,0.00,,,-99.99,Weather View 32 v60,2013-02-10 03:00:00,
2013-02-09 19:05:00,44.3,27.8,30.02,ESE,109,0.0,5.0,52,0.00,,,-99.99,Weather View 32 v60,2013-02-10 03:05:00,
2013-02-09 19:08:00,48.5,27.0,30.01,East,90,2.0,7.0,43,0.00,,,-99.99,Weather View 32 v60,2013-02-10 03:08:00,
2013-02-09 19:13:00,48.2,27.3,30.01,East,98,3.0,7.0,44,0.00,,,-99.99,Weather View 32 v60,2013-02-10 03:13:00,
2013-02-09 19:15:00,44.3,27.8,30.02,East,97,1.0,4.0,52,0.00,,,-99.99,Weather View 32 v60,2013-02-10 03:15:00,
2013-02-09 19:18:00,48.0,27.1,30.01,East,91,2.0,7.0,44,0.00,,,-99.99,Weather View 32 v60,2013-02-10 03:18:00,
2013-02-09 19:20:00,44.2,28.1,30.02,East,86,0.0,4.0,53,0.00,,,-99.99,Weather View 32 v60,2013-02-10 03:20:00,
2013-02-09 19:25:00,43.9,28.3,30.02,East,96,0.0,4.0,54,0.00,,,-99.99,Weather View 32 v60,2013-02-10 03:25:00,
2013-02-09 19:28:00,47.2,27.4,30.02,ENE,75,1.0,6.0,46,0.00,,,-99.99,Weather View 32 v60,2013-02-10 03:28:00,
2013-02-09 19:33:00,46.7,27.0,30.02,East,94,3.0,6.0,46,0.00,,,-99.99,Weather View 32 v60,2013-02-10 03:33:00,
2013-02-09 19:35:00,43.5,28.4,30.02,ESE,110,1.0,4.0,55,0.00,,,-99.99,Weather View 32 v60,2013-02-10 03:35:00,
2013-02-09 19:38:00,46.4,27.2,30.02,East,90,3.0,6.0,47,0.00,,,-99.99,Weather View 32 v60,2013-02-10 03:38:00,
2013-02-09 19:40:00,43.2,28.5,30.02,ENE,75,0.0,4.0,56,0.00,,,-99.99,Weather View 32 v60,2013-02-10 03:40:00,
2013-02-09 19:45:00,42.7,28.5,30.03,ENE,68,1.0,4.0,57,0.00,,,-99.99,Weather View 32 v60,2013-02-10 03:45:00,
2013-02-09 19:50:00,42.3,28.6,30.03,NNE,16,2.0,3.0,58,0.00,,,-99.99,Weather View 32 v60,2013-02-10 03:50:00,
2013-02-09 19:55:00,42.1,28.8,30.03,NE,47,2.0,3.0,59,0.00,,,-99.99,Weather View 32 v60,2013-02-10 03:55:00,
2013-02-09 19:58:00,45.1,27.5,30.02,ESE,105,1.0,5.0,50,0.00,,,-99.99,Weather View 32 v60,2013-02-10 03:58:00,
2013-02-09 20:00:00,42.0,29.1,30.03,East,97,2.0,3.0,60,0.00,,,-99.99,Weather View 32 v60,2013-02-10 04:00:00,
2013-02-09 20:05:00,41.8,29.3,30.03,East,84,2.0,3.0,61,0.00,,,-99.99,Weather View 32 v60,2013-02-10 04:05:00,
2013-02-09 20:10:00,41.8,29.3,30.04,NE,53,2.0,4.0,61,0.00,,,-99.99,Weather View 32 v60,2013-02-10 04:10:00,
2013-02-09 20:13:00,44.1,27.6,30.02,NE,50,1.0,4.0,52,0.00,,,-99.99,Weather View 32 v60,2013-02-10 04:13:00,
2013-02-09 20:15:00,41.5,29.0,30.04,East,88,2.0,4.0,61,0.00,,,-99.99,Weather View 32 v60,2013-02-10 04:15:00,
2013-02-09 20:20:00,41.5,29.0,30.04,NE,56,2.0,4.0,61,0.00,,,-99.99,Weather View 32 v60,2013-02-10 04:20:00,
2013-02-09 20:25:00,41.3,29.2,30.04,NE,35,2.0,4.0,62,0.00,,,-99.99,Weather View 32 v60,2013-02-10 04:25:00,
2013-02-09 20:30:00,41.1,29.1,30.04,NNE,12,1.0,4.0,62,0.00,,,-99.99,Weather View 32 v60,2013-02-10 04:30:00,
2013-02-09 20:33:00,43.6,28.5,30.02,ESE,113,1.0,4.0,55,0.00,,,-99.99,Weather View 32 v60,2013-02-10 04:33:00,
2013-02-09 20:35:00,40.8,29.2,30.04,NNE,26,1.0,4.0,63,0.00,,,-99.99,Weather View 32 v60,2013-02-10 04:35:00,
2013-02-09 20:40:00,40.4,28.8,30.04,NNE,25,1.0,4.0,63,0.00,,,-99.99,Weather View 32 v60,2013-02-10 04:40:00,
2013-02-09 20:45:00,40.3,29.1,30.04,NE,48,2.0,4.0,64,0.00,,,-99.99,Weather View 32 v60,2013-02-10 04:45:00,
2013-02-09 20:48:00,42.7,28.5,30.03,ENE,68,1.0,4.0,57,0.00,,,-99.99,Weather View 32 v60,2013-02-10 04:48:00,
2013-02-09 20:50:00,40.1,29.3,30.04,North,349,1.0,4.0,65,0.00,,,-99.99,Weather View 32 v60,2013-02-10 04:50:00,
2013-02-09 20:55:00,40.0,29.5,30.03,NNW,348,1.0,4.0,66,0.00,,,-99.99,Weather View 32 v60,2013-02-10 04:55:00,
2013-02-09 21:00:00,39.8,29.4,30.03,NNW,336,2.0,4.0,66,0.00,,,-99.99,Weather View 32 v60,2013-02-10 05:00:00,
2013-02-09 21:05:00,39.6,29.2,30.03,NE,47,2.0,4.0,66,0.00,,,-99.99,Weather View 32 v60,2013-02-10 05:05:00,
2013-02-09 21:10:00,39.5,29.4,30.03,NE,46,0.0,4.0,67,0.00,,,-99.99,Weather View 32 v60,2013-02-10 05:10:00,
2013-02-09 21:15:00,39.6,29.5,30.03,East,82,0.0,4.0,67,0.00,,,-99.99,Weather View 32 v60,2013-02-10 05:15:00,
2013-02-09 21:20:00,39.6,29.5,30.03,ENE,66,0.0,3.0,67,0.00,,,-99.99,Weather View 32 v60,2013-02-10 05:20:00,
2013-02-09 21:25:00,39.4,29.3,30.03,ENE,66,1.0,3.0,67,0.00,,,-99.99,Weather View 32 v60,2013-02-10 05:25:00,
2013-02-09 21:30:00,39.3,29.2,30.03,East,80,1.0,3.0,67,0.00,,,-99.99,Weather View 32 v60,2013-02-10 05:30:00,
2013-02-09 21:35:00,39.1,29.1,30.03,East,99,0.0,3.0,67,0.00,,,-99.99,Weather View 32 v60,2013-02-10 05:35:00,
2013-02-09 21:40:00,39.0,29.7,30.04,WNW,284,1.0,3.0,69,0.00,,,-99.99,Weather View 32 v60,2013-02-10 05:40:00,
2013-02-09 21:45:00,38.8,29.5,30.04,WNW,282,1.0,3.0,69,0.00,,,-99.99,Weather View 32 v60,2013-02-10 05:45:00,
2013-02-09 21:50:00,38.7,29.4,30.03,WNW,289,0.0,3.0,69,0.00,,,-99.99,Weather View 32 v60,2013-02-10 05:50:00,
2013-02-09 21:55:00,38.5,29.2,30.03,WNW,288,0.0,3.0,69,0.00,,,-99.99,Weather View 32 v60,2013-02-10 05:55:00,
2013-02-09 22:00:00,38.3,29.4,30.04,NE,42,1.0,3.0,70,0.00,,,-99.99,Weather View 32 v60,2013-02-10 06:00:00,
2013-02-09 22:05:00,38.3,29.4,30.04,NNE,12,2.0,3.0,70,0.00,,,-99.99,Weather View 32 v60,2013-02-10 06:05:00,
2013-02-09 22:10:00,38.3,29.0,30.04,North,7,1.0,3.0,69,0.00,,,-99.99,Weather View 32 v60,2013-02-10 06:10:00,
2013-02-09 22:15:00,38.3,29.0,30.04,NNW,334,0.0,3.0,69,0.00,,,-99.99,Weather View 32 v60,2013-02-10 06:15:00,
2013-02-09 22:20:00,38.1,29.2,30.05,NW,317,1.0,3.0,70,0.00,,,-99.99,Weather View 32 v60,2013-02-10 06:20:00,
2013-02-09 22:25:00,38.0,29.1,30.05,East,82,2.0,3.0,70,0.00,,,-99.99,Weather View 32 v60,2013-02-10 06:25:00,
2013-02-09 22:30:00,38.0,29.4,30.05,East,87,0.0,3.0,71,0.00,,,-99.99,Weather View 32 v60,2013-02-10 06:30:00,
2013-02-09 22:35:00,37.8,29.2,30.05,East,89,0.0,3.0,71,0.00,,,-99.99,Weather View 32 v60,2013-02-10 06:35:00,
2013-02-09 22:40:00,37.6,29.0,30.05,East,99,2.0,3.0,71,0.00,,,-99.99,Weather View 32 v60,2013-02-10 06:40:00,
2013-02-09 22:45:00,37.3,28.8,30.05,East,98,0.0,3.0,71,0.00,,,-99.99,Weather View 32 v60,2013-02-10 06:45:00,
2013-02-09 22:50:00,37.0,28.8,30.05,ENE,70,0.0,3.0,72,0.00,,,-99.99,Weather View 32 v60,2013-02-10 06:50:00,
2013-02-09 22:55:00,36.9,29.0,30.05,WNW,283,1.0,3.0,73,0.00,,,-99.99,Weather View 32 v60,2013-02-10 06:55:00,
2013-02-09 23:00:00,36.8,29.0,30.05,WNW,295,1.0,3.0,73,0.00,,,-99.99,Weather View 32 v60,2013-02-10 07:00:00,
2013-02-09 23:05:00,36.7,28.9,30.05,WNW,299,0.0,3.0,73,0.00,,,-99.99,Weather View 32 v60,2013-02-10 07:05:00,
2013-02-09 23:10:00,36.5,29.0,30.05,WNW,299,0.0,3.0,74,0.00,,,-99.99,Weather View 32 v60,2013-02-10 07:10:00,
2013-02-09 23:15:00,36.5,29.0,30.05,WNW,299,0.0,3.0,74,0.00,,,-99.99,Weather View 32 v60,2013-02-10 07:15:00,
2013-02-09 23:20:00,36.3,29.1,30.05,WNW,299,0.0,3.0,75,0.00,,,-99.99,Weather View 32 v60,2013-02-10 07:20:00,
2013-02-09 23:25:00,36.2,29.0,30.05,NNW,331,0.0,3.0,75,0.00,,,-99.99,Weather View 32 v60,2013-02-10 07:25:00,
2013-02-09 23:30:00,36.1,29.3,30.04,NNE,15,1.0,3.0,76,0.00,,,-99.99,Weather View 32 v60,2013-02-10 07:30:00,
2013-02-09 23:35:00,36.0,29.2,30.04,NNE,23,2.0,3.0,76,0.00,,,-99.99,Weather View 32 v60,2013-02-10 07:35:00,
2013-02-09 23:40:00,35.8,29.0,30.04,NE,37,1.0,2.0,76,0.00,,,-99.99,Weather View 32 v60,2013-02-10 07:40:00,
2013-02-09 23:45:00,35.6,28.5,30.04,NE,37,0.0,2.0,75,0.00,,,-99.99,Weather View 32 v60,2013-02-10 07:45:00,
2013-02-09 23:50:00,35.3,28.5,30.04,North,354,0.0,2.0,76,0.00,,,-99.99,Weather View 32 v60,2013-02-10 07:50:00,
2013-02-09 23:55:00,35.1,28.6,30.04,NW,304,1.0,2.0,77,0.00,,,-99.99,Weather View 32 v60,2013-02-10 07:55:00,